sensor_id;sensor_type;location;lat;lon;timestamp;temperature;humidity
1417;DHT22;703;51.162;13.574;2022-07-23T00:02:23;17.90;99.90
1417;DHT22;703;51.162;13.574;2022-07-23T00:04:49;17.90;99.90
1417;DHT22;703;51.162;13.574;2022-07-23T00:07:14;17.80;99.90
1417;DHT22;703;51.162;13.574;2022-07-23T00:09:40;17.80;99.90
1417;DHT22;703;51.162;13.574;2022-07-23T00:12:06;17.70;99.90
1417;DHT22;703;51.162;13.574;2022-07-23T00:14:31;17.60;99.90
1417;DHT22;703;51.162;13.574;2022-07-23T00:16:57;17.60;99.90
1417;DHT22;703;51.162;13.574;2022-07-23T00:19:22;17.50;99.90
1417;DHT22;703;51.162;13.574;2022-07-23T00:21:48;17.50;99.90
1417;DHT22;703;51.162;13.574;2022-07-23T00:24:13;17.50;99.90
1417;DHT22;703;51.162;13.574;2022-07-23T00:26:39;17.60;99.90
1417;DHT22;703;51.162;13.574;2022-07-23T00:29:04;17.50;99.90
1417;DHT22;703;51.162;13.574;2022-07-23T00:31:30;17.50;99.90
1417;DHT22;703;51.162;13.574;2022-07-23T00:33:55;17.50;99.90
1417;DHT22;703;51.162;13.574;2022-07-23T00:36:22;17.50;99.90
1417;DHT22;703;51.162;13.574;2022-07-23T00:38:51;17.50;99.90
1417;DHT22;703;51.162;13.574;2022-07-23T00:41:17;17.50;99.90
1417;DHT22;703;51.162;13.574;2022-07-23T00:43:42;18.70;99.90
1417;DHT22;703;51.162;13.574;2022-07-23T00:46:08;17.50;99.90
1417;DHT22;703;51.162;13.574;2022-07-23T00:48:33;17.60;99.90
1417;DHT22;703;51.162;13.574;2022-07-23T00:50:59;17.60;99.90
1417;DHT22;703;51.162;13.574;2022-07-23T00:53:25;17.60;99.90
1417;DHT22;703;51.162;13.574;2022-07-23T00:55:50;17.60;99.90
1417;DHT22;703;51.162;13.574;2022-07-23T00:58:17;17.50;99.90
1417;DHT22;703;51.162;13.574;2022-07-23T01:00:43;17.50;99.90
1417;DHT22;703;51.162;13.574;2022-07-23T01:03:09;17.50;99.90
1417;DHT22;703;51.162;13.574;2022-07-23T01:05:34;17.50;99.90
1417;DHT22;703;51.162;13.574;2022-07-23T01:08:00;17.70;99.90
1417;DHT22;703;51.162;13.574;2022-07-23T01:10:26;17.70;99.90
1417;DHT22;703;51.162;13.574;2022-07-23T01:12:59;17.80;99.90
1417;DHT22;703;51.162;13.574;2022-07-23T01:15:25;17.70;99.90
1417;DHT22;703;51.162;13.574;2022-07-23T01:17:51;17.70;99.90
1417;DHT22;703;51.162;13.574;2022-07-23T01:20:17;17.70;99.90
1417;DHT22;703;51.162;13.574;2022-07-23T01:22:43;17.80;99.90
1417;DHT22;703;51.162;13.574;2022-07-23T01:25:09;17.70;99.90
1417;DHT22;703;51.162;13.574;2022-07-23T01:27:35;17.70;99.90
1417;DHT22;703;51.162;13.574;2022-07-23T01:30:01;17.60;99.90
1417;DHT22;703;51.162;13.574;2022-07-23T01:32:27;17.70;99.90
1417;DHT22;703;51.162;13.574;2022-07-23T01:34:52;17.60;99.90
1417;DHT22;703;51.162;13.574;2022-07-23T01:37:18;17.70;99.90
1417;DHT22;703;51.162;13.574;2022-07-23T01:39:43;17.70;99.90
1417;DHT22;703;51.162;13.574;2022-07-23T01:42:09;17.70;99.90
1417;DHT22;703;51.162;13.574;2022-07-23T01:44:34;17.60;99.90
1417;DHT22;703;51.162;13.574;2022-07-23T01:47:00;17.60;99.90
1417;DHT22;703;51.162;13.574;2022-07-23T01:49:25;17.60;99.90
1417;DHT22;703;51.162;13.574;2022-07-23T01:51:51;17.50;99.90
1417;DHT22;703;51.162;13.574;2022-07-23T01:54:34;17.50;99.90
1417;DHT22;703;51.162;13.574;2022-07-23T01:57:00;17.60;99.90
1417;DHT22;703;51.162;13.574;2022-07-23T01:59:27;17.60;99.90
1417;DHT22;703;51.162;13.574;2022-07-23T02:01:53;17.60;99.90
1417;DHT22;703;51.162;13.574;2022-07-23T02:04:20;17.60;99.90
1417;DHT22;703;51.162;13.574;2022-07-23T02:06:46;17.50;99.90
1417;DHT22;703;51.162;13.574;2022-07-23T02:09:12;17.50;99.90
1417;DHT22;703;51.162;13.574;2022-07-23T02:11:38;17.40;99.90
1417;DHT22;703;51.162;13.574;2022-07-23T02:14:03;17.30;99.90
1417;DHT22;703;51.162;13.574;2022-07-23T02:16:29;17.40;99.90
1417;DHT22;703;51.162;13.574;2022-07-23T02:18:55;17.40;99.90
1417;DHT22;703;51.162;13.574;2022-07-23T02:21:20;17.40;99.90
1417;DHT22;703;51.162;13.574;2022-07-23T02:23:46;17.40;99.90
1417;DHT22;703;51.162;13.574;2022-07-23T02:26:11;17.40;99.90
1417;DHT22;703;51.162;13.574;2022-07-23T02:28:37;17.40;99.90
1417;DHT22;703;51.162;13.574;2022-07-23T02:31:02;17.40;99.90
1417;DHT22;703;51.162;13.574;2022-07-23T02:33:28;17.40;99.90
1417;DHT22;703;51.162;13.574;2022-07-23T02:35:54;17.30;99.90
1417;DHT22;703;51.162;13.574;2022-07-23T02:38:19;17.40;99.90
1417;DHT22;703;51.162;13.574;2022-07-23T02:40:45;17.20;99.90
1417;DHT22;703;51.162;13.574;2022-07-23T02:43:10;17.20;99.90
1417;DHT22;703;51.162;13.574;2022-07-23T02:45:36;17.10;99.90
1417;DHT22;703;51.162;13.574;2022-07-23T02:48:01;17.10;99.90
1417;DHT22;703;51.162;13.574;2022-07-23T02:50:27;17.10;99.90
1417;DHT22;703;51.162;13.574;2022-07-23T02:52:52;17.10;99.90
1417;DHT22;703;51.162;13.574;2022-07-23T02:55:18;17.10;99.90
1417;DHT22;703;51.162;13.574;2022-07-23T02:57:44;17.00;99.90
1417;DHT22;703;51.162;13.574;2022-07-23T03:00:10;17.00;99.90
1417;DHT22;703;51.162;13.574;2022-07-23T03:02:35;16.90;99.90
1417;DHT22;703;51.162;13.574;2022-07-23T03:05:01;16.90;99.90
1417;DHT22;703;51.162;13.574;2022-07-23T03:07:26;16.90;99.90
1417;DHT22;703;51.162;13.574;2022-07-23T03:09:52;16.90;99.90
1417;DHT22;703;51.162;13.574;2022-07-23T03:12:17;17.00;99.90
1417;DHT22;703;51.162;13.574;2022-07-23T03:14:43;17.00;99.90
1417;DHT22;703;51.162;13.574;2022-07-23T03:17:09;17.00;99.90
1417;DHT22;703;51.162;13.574;2022-07-23T03:19:34;16.90;99.90
1417;DHT22;703;51.162;13.574;2022-07-23T03:22:00;16.90;99.90
1417;DHT22;703;51.162;13.574;2022-07-23T03:24:25;17.00;99.90
1417;DHT22;703;51.162;13.574;2022-07-23T03:27:09;17.00;99.90
1417;DHT22;703;51.162;13.574;2022-07-23T03:29:35;17.00;99.90
1417;DHT22;703;51.162;13.574;2022-07-23T03:32:03;17.00;99.90
1417;DHT22;703;51.162;13.574;2022-07-23T03:34:28;17.10;99.90
1417;DHT22;703;51.162;13.574;2022-07-23T03:36:54;17.10;99.90
1417;DHT22;703;51.162;13.574;2022-07-23T03:39:19;17.10;99.90
1417;DHT22;703;51.162;13.574;2022-07-23T03:41:45;17.10;99.90
1417;DHT22;703;51.162;13.574;2022-07-23T03:44:10;17.10;99.90
1417;DHT22;703;51.162;13.574;2022-07-23T03:46:36;17.10;99.90
1417;DHT22;703;51.162;13.574;2022-07-23T03:49:02;17.10;99.90
1417;DHT22;703;51.162;13.574;2022-07-23T03:51:27;17.10;99.90
1417;DHT22;703;51.162;13.574;2022-07-23T03:53:53;17.10;99.90
1417;DHT22;703;51.162;13.574;2022-07-23T03:56:20;17.20;99.90
1417;DHT22;703;51.162;13.574;2022-07-23T03:58:45;17.20;99.90
1417;DHT22;703;51.162;13.574;2022-07-23T04:01:11;17.20;99.90
1417;DHT22;703;51.162;13.574;2022-07-23T04:03:37;17.20;99.90
1417;DHT22;703;51.162;13.574;2022-07-23T04:06:03;17.20;99.90
1417;DHT22;703;51.162;13.574;2022-07-23T04:08:28;17.20;99.90
1417;DHT22;703;51.162;13.574;2022-07-23T04:10:54;17.20;99.90
1417;DHT22;703;51.162;13.574;2022-07-23T04:13:20;17.20;99.90
1417;DHT22;703;51.162;13.574;2022-07-23T04:15:45;17.20;99.90
1417;DHT22;703;51.162;13.574;2022-07-23T04:18:11;17.20;99.90
1417;DHT22;703;51.162;13.574;2022-07-23T04:20:36;17.30;99.90
1417;DHT22;703;51.162;13.574;2022-07-23T04:23:02;17.30;99.90
1417;DHT22;703;51.162;13.574;2022-07-23T04:25:27;17.30;99.90
1417;DHT22;703;51.162;13.574;2022-07-23T04:27:53;17.40;99.90
1417;DHT22;703;51.162;13.574;2022-07-23T04:30:18;17.40;99.90
1417;DHT22;703;51.162;13.574;2022-07-23T04:32:44;17.50;99.90
1417;DHT22;703;51.162;13.574;2022-07-23T04:35:09;17.20;99.90
1417;DHT22;703;51.162;13.574;2022-07-23T04:37:35;17.70;99.90
1417;DHT22;703;51.162;13.574;2022-07-23T04:40:00;17.70;99.90
1417;DHT22;703;51.162;13.574;2022-07-23T04:42:26;17.70;99.90
1417;DHT22;703;51.162;13.574;2022-07-23T04:44:51;17.70;99.90
1417;DHT22;703;51.162;13.574;2022-07-23T04:47:17;17.90;99.90
1417;DHT22;703;51.162;13.574;2022-07-23T04:49:42;17.70;99.90
1417;DHT22;703;51.162;13.574;2022-07-23T04:52:08;17.70;99.90
1417;DHT22;703;51.162;13.574;2022-07-23T04:54:33;17.90;99.90
1417;DHT22;703;51.162;13.574;2022-07-23T04:56:59;17.90;99.90
1417;DHT22;703;51.162;13.574;2022-07-23T04:59:24;17.90;99.90
1417;DHT22;703;51.162;13.574;2022-07-23T05:01:50;19.00;99.90
1417;DHT22;703;51.162;13.574;2022-07-23T05:04:15;18.10;99.90
1417;DHT22;703;51.162;13.574;2022-07-23T05:06:41;18.20;99.90
1417;DHT22;703;51.162;13.574;2022-07-23T05:09:06;18.10;99.90
1417;DHT22;703;51.162;13.574;2022-07-23T05:11:32;18.00;99.90
1417;DHT22;703;51.162;13.574;2022-07-23T05:13:57;17.90;99.90
1417;DHT22;703;51.162;13.574;2022-07-23T05:16:23;18.00;99.90
1417;DHT22;703;51.162;13.574;2022-07-23T05:18:48;18.00;99.90
1417;DHT22;703;51.162;13.574;2022-07-23T05:21:15;18.10;99.90
1417;DHT22;703;51.162;13.574;2022-07-23T05:23:46;18.10;99.90
1417;DHT22;703;51.162;13.574;2022-07-23T05:26:12;18.20;99.90
1417;DHT22;703;51.162;13.574;2022-07-23T05:28:53;18.20;99.90
1417;DHT22;703;51.162;13.574;2022-07-23T05:31:19;18.20;99.90
1417;DHT22;703;51.162;13.574;2022-07-23T05:33:44;18.20;99.90
1417;DHT22;703;51.162;13.574;2022-07-23T05:36:10;18.10;99.90
1417;DHT22;703;51.162;13.574;2022-07-23T05:38:35;18.10;99.90
1417;DHT22;703;51.162;13.574;2022-07-23T05:41:01;18.00;99.90
1417;DHT22;703;51.162;13.574;2022-07-23T05:43:27;18.10;99.90
1417;DHT22;703;51.162;13.574;2022-07-23T05:45:53;18.00;99.90
1417;DHT22;703;51.162;13.574;2022-07-23T05:48:19;18.10;99.90
1417;DHT22;703;51.162;13.574;2022-07-23T05:50:44;18.00;99.90
1417;DHT22;703;51.162;13.574;2022-07-23T05:53:19;18.00;99.90
1417;DHT22;703;51.162;13.574;2022-07-23T05:55:45;18.00;99.90
1417;DHT22;703;51.162;13.574;2022-07-23T05:58:28;18.10;99.90
1417;DHT22;703;51.162;13.574;2022-07-23T06:00:54;19.40;99.90
1417;DHT22;703;51.162;13.574;2022-07-23T06:03:19;18.00;99.90
1417;DHT22;703;51.162;13.574;2022-07-23T06:05:45;18.00;99.90
1417;DHT22;703;51.162;13.574;2022-07-23T06:08:10;18.00;99.90
1417;DHT22;703;51.162;13.574;2022-07-23T06:10:36;18.10;99.90
1417;DHT22;703;51.162;13.574;2022-07-23T06:13:02;18.10;99.90
1417;DHT22;703;51.162;13.574;2022-07-23T06:15:27;17.70;99.90
1417;DHT22;703;51.162;13.574;2022-07-23T06:17:53;18.10;99.90
1417;DHT22;703;51.162;13.574;2022-07-23T06:20:18;18.00;99.90
1417;DHT22;703;51.162;13.574;2022-07-23T06:22:46;18.10;99.90
1417;DHT22;703;51.162;13.574;2022-07-23T06:25:11;18.10;99.90
1417;DHT22;703;51.162;13.574;2022-07-23T06:27:37;18.20;99.90
1417;DHT22;703;51.162;13.574;2022-07-23T06:30:03;18.30;99.90
1417;DHT22;703;51.162;13.574;2022-07-23T06:32:28;18.60;99.90
1417;DHT22;703;51.162;13.574;2022-07-23T06:34:54;18.70;99.90
1417;DHT22;703;51.162;13.574;2022-07-23T06:37:19;19.00;99.90
1417;DHT22;703;51.162;13.574;2022-07-23T06:39:45;19.00;99.90
1417;DHT22;703;51.162;13.574;2022-07-23T06:42:10;19.10;99.90
1417;DHT22;703;51.162;13.574;2022-07-23T06:44:37;19.00;99.90
1417;DHT22;703;51.162;13.574;2022-07-23T06:47:03;19.00;99.90
1417;DHT22;703;51.162;13.574;2022-07-23T06:49:28;19.20;99.90
1417;DHT22;703;51.162;13.574;2022-07-23T06:51:54;19.10;99.90
1417;DHT22;703;51.162;13.574;2022-07-23T06:54:27;19.10;99.90
1417;DHT22;703;51.162;13.574;2022-07-23T06:56:52;19.20;99.90
1417;DHT22;703;51.162;13.574;2022-07-23T06:59:18;23.10;99.90
1417;DHT22;703;51.162;13.574;2022-07-23T07:01:43;19.90;99.90
1417;DHT22;703;51.162;13.574;2022-07-23T07:04:09;21.10;99.90
1417;DHT22;703;51.162;13.574;2022-07-23T07:06:34;20.30;99.90
1417;DHT22;703;51.162;13.574;2022-07-23T07:09:00;20.30;99.90
1417;DHT22;703;51.162;13.574;2022-07-23T07:11:25;20.30;99.90
1417;DHT22;703;51.162;13.574;2022-07-23T07:13:51;20.60;99.90
1417;DHT22;703;51.162;13.574;2022-07-23T07:16:17;20.70;99.90
1417;DHT22;703;51.162;13.574;2022-07-23T07:18:47;20.90;99.90
1417;DHT22;703;51.162;13.574;2022-07-23T07:21:13;21.20;99.90
1417;DHT22;703;51.162;13.574;2022-07-23T07:23:38;21.30;99.90
1417;DHT22;703;51.162;13.574;2022-07-23T07:26:04;21.60;99.90
1417;DHT22;703;51.162;13.574;2022-07-23T07:28:30;21.60;99.90
1417;DHT22;703;51.162;13.574;2022-07-23T07:31:22;21.80;99.90
1417;DHT22;703;51.162;13.574;2022-07-23T07:33:48;21.90;99.90
1417;DHT22;703;51.162;13.574;2022-07-23T07:36:13;22.00;99.90
1417;DHT22;703;51.162;13.574;2022-07-23T07:38:39;22.20;99.90
1417;DHT22;703;51.162;13.574;2022-07-23T07:41:04;22.20;99.90
1417;DHT22;703;51.162;13.574;2022-07-23T07:43:30;22.30;99.90
1417;DHT22;703;51.162;13.574;2022-07-23T07:45:56;21.80;99.90
1417;DHT22;703;51.162;13.574;2022-07-23T07:48:21;22.50;99.90
1417;DHT22;703;51.162;13.574;2022-07-23T07:50:46;22.40;99.90
1417;DHT22;703;51.162;13.574;2022-07-23T07:53:12;22.00;99.90
1417;DHT22;703;51.162;13.574;2022-07-23T07:55:37;22.00;99.90
1417;DHT22;703;51.162;13.574;2022-07-23T07:58:03;22.20;99.90
1417;DHT22;703;51.162;13.574;2022-07-23T08:00:28;22.40;99.90
1417;DHT22;703;51.162;13.574;2022-07-23T08:02:54;22.00;99.90
1417;DHT22;703;51.162;13.574;2022-07-23T08:05:21;22.30;99.90
1417;DHT22;703;51.162;13.574;2022-07-23T08:07:47;23.40;99.90
1417;DHT22;703;51.162;13.574;2022-07-23T08:10:13;22.60;99.90
1417;DHT22;703;51.162;13.574;2022-07-23T08:12:49;22.50;99.90
1417;DHT22;703;51.162;13.574;2022-07-23T08:15:16;22.90;99.90
1417;DHT22;703;51.162;13.574;2022-07-23T08:17:43;22.80;99.90
1417;DHT22;703;51.162;13.574;2022-07-23T08:20:11;22.90;99.90
1417;DHT22;703;51.162;13.574;2022-07-23T08:25:10;23.10;99.90
1417;DHT22;703;51.162;13.574;2022-07-23T08:27:35;23.20;99.90
1417;DHT22;703;51.162;13.574;2022-07-23T08:30:01;23.60;99.90
1417;DHT22;703;51.162;13.574;2022-07-23T08:32:26;24.00;99.90
1417;DHT22;703;51.162;13.574;2022-07-23T08:34:52;24.00;99.90
1417;DHT22;703;51.162;13.574;2022-07-23T08:37:17;24.10;99.90
1417;DHT22;703;51.162;13.574;2022-07-23T08:39:43;24.20;99.90
1417;DHT22;703;51.162;13.574;2022-07-23T08:42:08;24.10;99.90
1417;DHT22;703;51.162;13.574;2022-07-23T08:44:35;24.10;99.90
1417;DHT22;703;51.162;13.574;2022-07-23T08:47:01;24.20;99.90
1417;DHT22;703;51.162;13.574;2022-07-23T08:49:28;23.70;99.90
1417;DHT22;703;51.162;13.574;2022-07-23T08:51:54;23.80;99.90
1417;DHT22;703;51.162;13.574;2022-07-23T08:54:22;24.70;99.90
1417;DHT22;703;51.162;13.574;2022-07-23T08:56:57;24.30;99.90
1417;DHT22;703;51.162;13.574;2022-07-23T08:59:23;23.90;99.90
1417;DHT22;703;51.162;13.574;2022-07-23T09:01:48;24.00;99.90
1417;DHT22;703;51.162;13.574;2022-07-23T09:04:14;23.80;99.90
1417;DHT22;703;51.162;13.574;2022-07-23T09:06:40;23.60;99.90
1417;DHT22;703;51.162;13.574;2022-07-23T09:09:18;24.40;99.90
1417;DHT22;703;51.162;13.574;2022-07-23T09:11:48;24.60;99.90
1417;DHT22;703;51.162;13.574;2022-07-23T09:14:41;24.50;99.90
1417;DHT22;703;51.162;13.574;2022-07-23T09:17:15;24.80;99.90
1417;DHT22;703;51.162;13.574;2022-07-23T09:19:43;25.20;99.90
1417;DHT22;703;51.162;13.574;2022-07-23T09:22:24;25.20;99.90
1417;DHT22;703;51.162;13.574;2022-07-23T09:25:17;26.20;99.90
1417;DHT22;703;51.162;13.574;2022-07-23T09:27:54;25.10;99.90
1417;DHT22;703;51.162;13.574;2022-07-23T09:30:27;24.90;99.90
1417;DHT22;703;51.162;13.574;2022-07-23T09:35:51;24.60;99.90
1417;DHT22;703;51.162;13.574;2022-07-23T09:38:19;24.60;99.90
1417;DHT22;703;51.162;13.574;2022-07-23T09:40:46;24.80;99.90
1417;DHT22;703;51.162;13.574;2022-07-23T09:43:14;24.70;99.90
1417;DHT22;703;51.162;13.574;2022-07-23T09:45:51;24.40;99.90
1417;DHT22;703;51.162;13.574;2022-07-23T09:48:17;24.30;99.90
1417;DHT22;703;51.162;13.574;2022-07-23T09:50:43;24.30;99.90
1417;DHT22;703;51.162;13.574;2022-07-23T09:53:25;25.30;99.90
1417;DHT22;703;51.162;13.574;2022-07-23T09:55:51;24.80;99.90
1417;DHT22;703;51.162;13.574;2022-07-23T09:58:20;24.70;99.90
1417;DHT22;703;51.162;13.574;2022-07-23T10:00:47;24.70;99.90
1417;DHT22;703;51.162;13.574;2022-07-23T10:03:14;24.70;99.90
1417;DHT22;703;51.162;13.574;2022-07-23T10:05:41;24.50;99.90
1417;DHT22;703;51.162;13.574;2022-07-23T10:08:11;26.10;99.90
1417;DHT22;703;51.162;13.574;2022-07-23T10:10:39;24.30;99.90
1417;DHT22;703;51.162;13.574;2022-07-23T10:13:05;24.60;99.90
1417;DHT22;703;51.162;13.574;2022-07-23T10:15:46;25.20;99.90
1417;DHT22;703;51.162;13.574;2022-07-23T10:18:12;25.20;99.90
1417;DHT22;703;51.162;13.574;2022-07-23T10:20:38;24.90;99.90
1417;DHT22;703;51.162;13.574;2022-07-23T10:25:42;26.10;99.90
1417;DHT22;703;51.162;13.574;2022-07-23T10:28:24;26.10;99.90
1417;DHT22;703;51.162;13.574;2022-07-23T10:31:06;26.10;99.90
1417;DHT22;703;51.162;13.574;2022-07-23T10:36:42;25.40;99.90
1417;DHT22;703;51.162;13.574;2022-07-23T10:39:29;25.50;99.90
1417;DHT22;703;51.162;13.574;2022-07-23T10:42:17;26.10;99.90
1417;DHT22;703;51.162;13.574;2022-07-23T10:44:48;25.90;99.90
1417;DHT22;703;51.162;13.574;2022-07-23T10:47:29;27.00;99.90
1417;DHT22;703;51.162;13.574;2022-07-23T10:58:05;26.10;99.90
1417;DHT22;703;51.162;13.574;2022-07-23T11:00:35;25.80;99.90
1417;DHT22;703;51.162;13.574;2022-07-23T11:03:27;25.90;99.90
1417;DHT22;703;51.162;13.574;2022-07-23T11:05:51;25.60;99.90
1417;DHT22;703;51.162;13.574;2022-07-23T11:08:20;25.20;99.90
1417;DHT22;703;51.162;13.574;2022-07-23T11:24:12;24.50;99.90
1417;DHT22;703;51.162;13.574;2022-07-23T11:26:46;24.30;99.90
1417;DHT22;703;51.162;13.574;2022-07-23T11:32:24;23.70;99.90
1417;DHT22;703;51.162;13.574;2022-07-23T11:34:50;23.70;99.90
1417;DHT22;703;51.162;13.574;2022-07-23T11:37:47;23.60;99.90
1417;DHT22;703;51.162;13.574;2022-07-23T11:40:15;23.40;99.90
1417;DHT22;703;51.162;13.574;2022-07-23T11:42:53;22.80;99.90
1417;DHT22;703;51.162;13.574;2022-07-23T11:45:19;22.50;99.90
1417;DHT22;703;51.162;13.574;2022-07-23T11:47:44;22.60;99.90
1417;DHT22;703;51.162;13.574;2022-07-23T11:50:10;20.50;99.90
1417;DHT22;703;51.162;13.574;2022-07-23T11:52:36;22.00;99.90
1417;DHT22;703;51.162;13.574;2022-07-23T11:55:08;21.60;99.90
1417;DHT22;703;51.162;13.574;2022-07-23T11:57:37;22.00;99.90
1417;DHT22;703;51.162;13.574;2022-07-23T12:00:10;22.00;99.90
1417;DHT22;703;51.162;13.574;2022-07-23T12:02:38;22.30;99.90
1417;DHT22;703;51.162;13.574;2022-07-23T12:05:04;22.00;99.90
1417;DHT22;703;51.162;13.574;2022-07-23T12:07:36;22.20;99.90
1417;DHT22;703;51.162;13.574;2022-07-23T12:10:14;22.20;99.90
1417;DHT22;703;51.162;13.574;2022-07-23T12:12:53;22.30;99.90
1417;DHT22;703;51.162;13.574;2022-07-23T12:15:21;21.80;99.90
1417;DHT22;703;51.162;13.574;2022-07-23T12:17:49;21.60;99.90
1417;DHT22;703;51.162;13.574;2022-07-23T12:20:23;21.70;99.90
1417;DHT22;703;51.162;13.574;2022-07-23T12:23:01;21.80;99.90
1417;DHT22;703;51.162;13.574;2022-07-23T12:25:36;21.90;99.90
1417;DHT22;703;51.162;13.574;2022-07-23T12:30:39;22.80;99.90
1417;DHT22;703;51.162;13.574;2022-07-23T12:33:06;22.60;99.90
1417;DHT22;703;51.162;13.574;2022-07-23T12:35:44;23.00;99.90
1417;DHT22;703;51.162;13.574;2022-07-23T12:38:13;23.40;99.90
1417;DHT22;703;51.162;13.574;2022-07-23T12:40:46;23.60;99.90
1417;DHT22;703;51.162;13.574;2022-07-23T12:43:24;23.50;99.90
1417;DHT22;703;51.162;13.574;2022-07-23T12:45:55;23.90;99.90
1417;DHT22;703;51.162;13.574;2022-07-23T12:48:26;24.00;99.90
1417;DHT22;703;51.162;13.574;2022-07-23T12:53:29;26.50;99.90
1417;DHT22;703;51.162;13.574;2022-07-23T13:01:31;24.30;99.90
1417;DHT22;703;51.162;13.574;2022-07-23T13:06:32;24.20;99.90
1417;DHT22;703;51.162;13.574;2022-07-23T13:08:58;23.80;99.90
1417;DHT22;703;51.162;13.574;2022-07-23T13:11:24;23.90;99.90
1417;DHT22;703;51.162;13.574;2022-07-23T13:13:50;24.40;99.90
1417;DHT22;703;51.162;13.574;2022-07-23T13:16:15;24.60;99.90
1417;DHT22;703;51.162;13.574;2022-07-23T13:18:41;27.00;99.90
1417;DHT22;703;51.162;13.574;2022-07-23T13:21:08;24.00;99.90
1417;DHT22;703;51.162;13.574;2022-07-23T13:23:34;24.20;99.90
1417;DHT22;703;51.162;13.574;2022-07-23T13:25:59;24.60;99.90
1417;DHT22;703;51.162;13.574;2022-07-23T13:28:25;25.10;99.90
1417;DHT22;703;51.162;13.574;2022-07-23T13:30:52;24.70;99.90
1417;DHT22;703;51.162;13.574;2022-07-23T13:33:19;24.60;99.90
1417;DHT22;703;51.162;13.574;2022-07-23T13:35:47;24.90;99.90
1417;DHT22;703;51.162;13.574;2022-07-23T13:38:13;25.20;99.90
1417;DHT22;703;51.162;13.574;2022-07-23T13:40:41;24.90;99.90
1417;DHT22;703;51.162;13.574;2022-07-23T13:43:09;25.20;99.90
1417;DHT22;703;51.162;13.574;2022-07-23T13:45:34;25.00;99.90
1417;DHT22;703;51.162;13.574;2022-07-23T13:48:01;24.90;99.90
1417;DHT22;703;51.162;13.574;2022-07-23T13:50:26;24.40;99.90
1417;DHT22;703;51.162;13.574;2022-07-23T13:52:52;24.50;99.90
1417;DHT22;703;51.162;13.574;2022-07-23T13:55:17;24.90;99.90
1417;DHT22;703;51.162;13.574;2022-07-23T13:57:43;25.00;99.90
1417;DHT22;703;51.162;13.574;2022-07-23T14:00:10;24.80;99.90
1417;DHT22;703;51.162;13.574;2022-07-23T14:02:38;24.50;99.90
1417;DHT22;703;51.162;13.574;2022-07-23T14:05:09;24.10;99.90
1417;DHT22;703;51.162;13.574;2022-07-23T14:07:36;24.80;99.90
1417;DHT22;703;51.162;13.574;2022-07-23T14:10:04;24.70;99.90
1417;DHT22;703;51.162;13.574;2022-07-23T14:12:30;25.00;99.90
1417;DHT22;703;51.162;13.574;2022-07-23T14:14:56;25.10;99.90
1417;DHT22;703;51.162;13.574;2022-07-23T14:17:22;25.40;99.90
1417;DHT22;703;51.162;13.574;2022-07-23T14:19:47;25.30;99.90
1417;DHT22;703;51.162;13.574;2022-07-23T14:22:13;25.30;99.90
1417;DHT22;703;51.162;13.574;2022-07-23T14:24:38;25.90;99.90
1417;DHT22;703;51.162;13.574;2022-07-23T14:27:04;26.10;99.90
1417;DHT22;703;51.162;13.574;2022-07-23T14:29:30;26.40;99.90
1417;DHT22;703;51.162;13.574;2022-07-23T14:31:57;26.40;99.90
1417;DHT22;703;51.162;13.574;2022-07-23T14:34:22;25.90;99.90
1417;DHT22;703;51.162;13.574;2022-07-23T14:36:48;25.50;99.90
1417;DHT22;703;51.162;13.574;2022-07-23T14:39:14;26.00;99.90
1417;DHT22;703;51.162;13.574;2022-07-23T14:41:39;26.10;99.90
1417;DHT22;703;51.162;13.574;2022-07-23T14:44:05;26.20;99.90
1417;DHT22;703;51.162;13.574;2022-07-23T14:46:31;26.40;99.90
1417;DHT22;703;51.162;13.574;2022-07-23T14:48:56;26.90;99.90
1417;DHT22;703;51.162;13.574;2022-07-23T14:51:22;27.00;99.90
1417;DHT22;703;51.162;13.574;2022-07-23T14:53:48;27.20;99.90
1417;DHT22;703;51.162;13.574;2022-07-23T14:56:14;27.00;99.90
1417;DHT22;703;51.162;13.574;2022-07-23T14:58:40;26.70;99.90
1417;DHT22;703;51.162;13.574;2022-07-23T15:01:06;27.20;99.90
1417;DHT22;703;51.162;13.574;2022-07-23T15:03:32;27.00;99.90
1417;DHT22;703;51.162;13.574;2022-07-23T15:05:58;26.40;99.90
1417;DHT22;703;51.162;13.574;2022-07-23T15:08:24;25.90;99.90
1417;DHT22;703;51.162;13.574;2022-07-23T15:10:49;26.00;99.90
1417;DHT22;703;51.162;13.574;2022-07-23T15:13:15;25.80;99.90
1417;DHT22;703;51.162;13.574;2022-07-23T15:15:40;25.50;99.90
1417;DHT22;703;51.162;13.574;2022-07-23T15:18:06;25.20;99.90
1417;DHT22;703;51.162;13.574;2022-07-23T15:20:31;25.80;99.90
1417;DHT22;703;51.162;13.574;2022-07-23T15:22:57;25.70;99.90
1417;DHT22;703;51.162;13.574;2022-07-23T15:25:23;28.40;99.90
1417;DHT22;703;51.162;13.574;2022-07-23T15:27:49;25.50;99.90
1417;DHT22;703;51.162;13.574;2022-07-23T15:30:14;25.00;99.90
1417;DHT22;703;51.162;13.574;2022-07-23T15:32:40;25.00;99.90
1417;DHT22;703;51.162;13.574;2022-07-23T15:35:06;25.10;99.90
1417;DHT22;703;51.162;13.574;2022-07-23T15:37:33;26.00;99.90
1417;DHT22;703;51.162;13.574;2022-07-23T15:39:59;25.90;99.90
1417;DHT22;703;51.162;13.574;2022-07-23T15:42:25;25.50;99.90
1417;DHT22;703;51.162;13.574;2022-07-23T15:44:50;25.30;99.90
1417;DHT22;703;51.162;13.574;2022-07-23T15:47:17;25.40;99.90
1417;DHT22;703;51.162;13.574;2022-07-23T15:49:46;25.90;99.90
1417;DHT22;703;51.162;13.574;2022-07-23T15:52:12;26.30;99.90
1417;DHT22;703;51.162;13.574;2022-07-23T15:54:38;26.00;99.90
1417;DHT22;703;51.162;13.574;2022-07-23T15:57:04;26.10;99.90
1417;DHT22;703;51.162;13.574;2022-07-23T15:59:30;26.50;99.90
1417;DHT22;703;51.162;13.574;2022-07-23T16:01:56;25.80;99.90
1417;DHT22;703;51.162;13.574;2022-07-23T16:04:21;25.70;99.90
1417;DHT22;703;51.162;13.574;2022-07-23T16:06:47;26.10;99.90
1417;DHT22;703;51.162;13.574;2022-07-23T16:09:12;26.10;99.90
1417;DHT22;703;51.162;13.574;2022-07-23T16:11:38;25.50;99.90
1417;DHT22;703;51.162;13.574;2022-07-23T16:14:03;25.30;99.90
1417;DHT22;703;51.162;13.574;2022-07-23T16:16:29;25.70;99.90
1417;DHT22;703;51.162;13.574;2022-07-23T16:18:55;25.80;99.90
1417;DHT22;703;51.162;13.574;2022-07-23T16:21:21;28.30;99.90
1417;DHT22;703;51.162;13.574;2022-07-23T16:23:47;25.60;99.90
1417;DHT22;703;51.162;13.574;2022-07-23T16:26:13;25.70;99.90
1417;DHT22;703;51.162;13.574;2022-07-23T16:28:39;25.50;99.90
1417;DHT22;703;51.162;13.574;2022-07-23T16:31:05;25.40;99.90
1417;DHT22;703;51.162;13.574;2022-07-23T16:33:31;25.60;99.90
1417;DHT22;703;51.162;13.574;2022-07-23T16:35:56;25.50;99.90
1417;DHT22;703;51.162;13.574;2022-07-23T16:38:22;25.20;99.90
1417;DHT22;703;51.162;13.574;2022-07-23T16:40:48;25.00;99.90
1417;DHT22;703;51.162;13.574;2022-07-23T16:43:14;25.30;99.90
1417;DHT22;703;51.162;13.574;2022-07-23T16:45:39;25.30;99.90
1417;DHT22;703;51.162;13.574;2022-07-23T16:48:05;25.20;99.90
1417;DHT22;703;51.162;13.574;2022-07-23T16:50:31;24.90;99.90
1417;DHT22;703;51.162;13.574;2022-07-23T16:52:56;24.80;99.90